createdAt,value
2018-01-08T00:00:54.062Z,1022.19
2018-01-08T00:02:47.280Z,1022.14
2018-01-08T00:03:47.189Z,1022.10
2018-01-08T00:05:40.440Z,1022.13
2018-01-08T00:06:40.363Z,1022.10
2018-01-08T00:08:33.628Z,1022.12
2018-01-08T00:09:33.534Z,1022.06
2018-01-08T00:11:27.779Z,1022.01
2018-01-08T00:12:27.708Z,1022.01
2018-01-08T00:14:20.960Z,1022.06
2018-01-08T00:15:20.862Z,1022.04
2018-01-08T00:17:14.110Z,1022.13
2018-01-08T00:18:14.034Z,1022.06
2018-01-08T00:20:07.458Z,1022.05
2018-01-08T00:21:07.195Z,1022.05
2018-01-08T00:23:00.572Z,1021.97
2018-01-08T00:24:00.364Z,1022.00
2018-01-08T00:25:53.726Z,1021.95
2018-01-08T00:26:53.528Z,1021.90
2018-01-08T00:28:46.798Z,1021.85
2018-01-08T00:29:46.697Z,1021.83
2018-01-08T00:31:39.948Z,1021.83
2018-01-08T00:32:39.870Z,1021.80
2018-01-08T00:34:33.137Z,1021.78
2018-01-08T00:35:33.042Z,1021.79
2018-01-08T00:37:26.288Z,1021.71
2018-01-08T00:38:26.214Z,1021.76
2018-01-08T00:40:19.472Z,1021.67
2018-01-08T00:41:19.376Z,1021.64
2018-01-08T00:43:12.649Z,1021.69
2018-01-08T00:44:12.549Z,1021.66
2018-01-08T00:46:05.793Z,1021.66
2018-01-08T00:47:05.719Z,1021.75
2018-01-08T00:48:59.094Z,1021.57
2018-01-08T00:49:58.887Z,1021.67
2018-01-08T00:51:52.136Z,1021.61
2018-01-08T00:52:52.060Z,1021.63
2018-01-08T00:54:45.396Z,1021.58
2018-01-08T00:55:45.298Z,1021.53
2018-01-08T00:57:38.555Z,1021.58
2018-01-08T00:58:38.469Z,1021.63
2018-01-08T01:00:31.849Z,1021.62
2018-01-08T01:01:31.643Z,1021.53
2018-01-08T01:03:24.895Z,1021.56
2018-01-08T01:04:24.800Z,1021.66
2018-01-08T01:06:18.158Z,1021.60
2018-01-08T01:07:17.972Z,1021.64
2018-01-08T01:09:11.247Z,1021.65
2018-01-08T01:10:11.146Z,1021.65
2018-01-08T01:12:04.390Z,1021.62
2018-01-08T01:13:04.314Z,1021.65
2018-01-08T01:14:57.570Z,1021.62
2018-01-08T01:15:57.474Z,1021.60
2018-01-08T01:17:50.721Z,1021.59
2018-01-08T01:18:50.649Z,1021.58
2018-01-08T01:20:43.912Z,1021.55
2018-01-08T01:21:43.816Z,1021.55
2018-01-08T01:23:37.083Z,1021.52
2018-01-08T01:24:36.984Z,1021.56
2018-01-08T01:26:30.232Z,1021.48
2018-01-08T01:27:30.163Z,1021.52
2018-01-08T01:29:23.425Z,1021.43
2018-01-08T01:30:23.332Z,1021.52
2018-01-08T01:32:16.577Z,1021.50
2018-01-08T01:33:16.501Z,1021.42
2018-01-08T01:35:10.768Z,1021.44
2018-01-08T01:36:10.673Z,1021.45
2018-01-08T01:38:03.919Z,1021.43
2018-01-08T01:39:03.843Z,1021.49
2018-01-08T01:40:58.220Z,1021.51
2018-01-08T01:41:58.013Z,1021.46
2018-01-08T01:43:51.390Z,1021.42
2018-01-08T01:44:51.194Z,1021.43
2018-01-08T01:46:44.458Z,1021.48
2018-01-08T01:47:44.381Z,1021.48
2018-01-08T01:49:37.636Z,1021.50
2018-01-08T01:50:37.542Z,1021.46
2018-01-08T01:52:30.788Z,1021.44
2018-01-08T01:53:30.715Z,1021.45
2018-01-08T01:55:23.980Z,1021.52
2018-01-08T01:56:23.889Z,1021.49
2018-01-08T01:58:17.132Z,1021.48
2018-01-08T01:59:17.060Z,1021.50
2018-01-08T02:01:10.324Z,1021.40
2018-01-08T02:02:10.229Z,1021.44
2018-01-08T02:04:03.498Z,1021.47
2018-01-08T02:05:03.403Z,1021.46
2018-01-08T02:06:56.657Z,1021.40
2018-01-08T02:07:56.578Z,1021.44
2018-01-08T02:09:49.841Z,1021.47
2018-01-08T02:10:49.746Z,1021.40
2018-01-08T02:12:42.995Z,1021.42
2018-01-08T02:13:42.919Z,1021.43
2018-01-08T02:15:36.299Z,1021.37
2018-01-08T02:16:36.092Z,1021.42
2018-01-08T02:18:29.453Z,1021.40
2018-01-08T02:19:29.270Z,1021.42
2018-01-08T02:21:22.531Z,1021.44
2018-01-08T02:22:22.436Z,1021.46
2018-01-08T02:24:15.707Z,1021.51
2018-01-08T02:25:15.610Z,1021.39
2018-01-08T02:27:08.970Z,1021.44
2018-01-08T02:28:08.783Z,1021.43
2018-01-08T02:30:02.040Z,1021.47
2018-01-08T02:31:01.945Z,1021.45
2018-01-08T02:32:55.216Z,1021.53
2018-01-08T02:33:55.141Z,1021.49
2018-01-08T02:35:48.405Z,1021.54
2018-01-08T02:36:48.312Z,1021.54
2018-01-08T02:38:42.563Z,1021.52
2018-01-08T02:39:42.484Z,1021.57
2018-01-08T02:41:35.750Z,1021.52
2018-01-08T02:42:35.658Z,1021.57
2018-01-08T02:44:28.923Z,1021.56
2018-01-08T02:45:28.833Z,1021.58
2018-01-08T02:47:22.077Z,1021.55
2018-01-08T02:48:22.019Z,1021.56
2018-01-08T02:50:15.260Z,1021.54
2018-01-08T02:51:15.167Z,1021.57
2018-01-08T02:53:08.417Z,1021.50
2018-01-08T02:54:08.342Z,1021.55
2018-01-08T02:56:01.607Z,1021.53
2018-01-08T02:57:01.514Z,1021.49
2018-01-08T02:58:54.762Z,1021.52
2018-01-08T02:59:54.688Z,1021.54
2018-01-08T03:01:47.952Z,1021.47
2018-01-08T03:02:47.860Z,1021.52
2018-01-08T03:04:41.127Z,1021.56
2018-01-08T03:05:41.034Z,1021.48
2018-01-08T03:07:34.284Z,1021.53
2018-01-08T03:08:34.209Z,1021.50
2018-01-08T03:10:27.590Z,1021.49
2018-01-08T03:11:27.381Z,1021.51
2018-01-08T03:13:20.742Z,1021.52
2018-01-08T03:14:20.554Z,1021.53
2018-01-08T03:16:13.933Z,1021.59
2018-01-08T03:17:13.727Z,1021.56
2018-01-08T03:19:06.976Z,1021.54
2018-01-08T03:20:06.900Z,1021.52
2018-01-08T03:22:00.272Z,1021.54
2018-01-08T03:23:00.073Z,1021.57
2018-01-08T03:24:53.394Z,1021.54
2018-01-08T03:25:53.300Z,1021.47
2018-01-08T03:27:47.547Z,1021.44
2018-01-08T03:28:47.472Z,1021.48
2018-01-08T03:30:40.738Z,1021.43
2018-01-08T03:31:40.642Z,1021.49
2018-01-08T03:33:33.896Z,1021.49
2018-01-08T03:34:33.818Z,1021.45
2018-01-08T03:36:27.089Z,1021.47
2018-01-08T03:37:26.990Z,1021.48
2018-01-08T03:39:20.250Z,1021.50
2018-01-08T03:40:20.171Z,1021.49
2018-01-08T03:42:13.437Z,1021.57
2018-01-08T03:43:13.343Z,1021.52
2018-01-08T03:45:06.609Z,1021.56
2018-01-08T03:46:06.518Z,1021.53
2018-01-08T03:47:59.766Z,1021.48
2018-01-08T03:48:59.689Z,1021.46
2018-01-08T03:50:53.067Z,1021.50
2018-01-08T03:51:52.860Z,1021.50
2018-01-08T03:53:46.108Z,1021.52
2018-01-08T03:54:46.029Z,1021.47
2018-01-08T03:56:39.392Z,1021.49
2018-01-08T03:57:39.299Z,1021.41
2018-01-08T03:59:32.541Z,1021.45
2018-01-08T04:00:32.470Z,1021.48
2018-01-08T04:02:25.733Z,1021.51
2018-01-08T04:03:25.639Z,1021.42
2018-01-08T04:05:18.909Z,1021.51
2018-01-08T04:06:18.813Z,1021.43
2018-01-08T04:08:12.062Z,1021.51
2018-01-08T04:09:11.988Z,1021.47
2018-01-08T04:11:05.363Z,1021.43
2018-01-08T04:12:05.160Z,1021.46
2018-01-08T04:13:58.519Z,1021.52
2018-01-08T04:14:58.331Z,1021.42
2018-01-08T04:16:51.595Z,1021.43
2018-01-08T04:17:51.501Z,1021.51
2018-01-08T04:19:44.755Z,1021.52
2018-01-08T04:20:44.679Z,1021.55
2018-01-08T04:22:37.944Z,1021.49
2018-01-08T04:23:37.851Z,1021.61
2018-01-08T04:25:31.117Z,1021.53
2018-01-08T04:26:31.027Z,1021.60
2018-01-08T04:28:24.273Z,1021.60
2018-01-08T04:29:24.198Z,1021.53
2018-01-08T04:31:17.577Z,1021.58
2018-01-08T04:32:17.369Z,1021.56
2018-01-08T04:34:10.616Z,1021.53
2018-01-08T04:35:10.539Z,1021.51
2018-01-08T04:37:03.999Z,1021.42
2018-01-08T04:38:03.906Z,1021.49
2018-01-08T04:39:57.145Z,1021.44
2018-01-08T04:40:57.070Z,1021.45
2018-01-08T04:42:50.334Z,1021.43
2018-01-08T04:43:50.242Z,1021.42
2018-01-08T04:45:43.506Z,1021.46
2018-01-08T04:46:43.412Z,1021.43
2018-01-08T04:48:36.772Z,1021.44
2018-01-08T04:49:36.590Z,1021.43
2018-01-08T04:51:29.857Z,1021.45
2018-01-08T04:52:29.762Z,1021.52
2018-01-08T04:54:23.013Z,1021.47
2018-01-08T04:55:22.936Z,1021.44
2018-01-08T04:57:16.316Z,1021.49
2018-01-08T04:58:16.112Z,1021.46
2018-01-08T05:00:09.493Z,1021.39
2018-01-08T05:01:09.303Z,1021.42
2018-01-08T05:03:02.575Z,1021.43
2018-01-08T05:04:02.485Z,1021.36
2018-01-08T05:05:55.755Z,1021.45
2018-01-08T05:06:55.658Z,1021.41
2018-01-08T05:08:49.018Z,1021.39
2018-01-08T05:09:48.834Z,1021.40
2018-01-08T05:11:42.096Z,1021.36
2018-01-08T05:12:42.003Z,1021.38
2018-01-08T05:14:36.364Z,1021.37
2018-01-08T05:15:36.174Z,1021.35
2018-01-08T05:17:29.438Z,1021.28
2018-01-08T05:18:29.345Z,1021.33
2018-01-08T05:20:22.731Z,1021.30
2018-01-08T05:21:22.514Z,1021.26
2018-01-08T05:23:15.758Z,1021.25
2018-01-08T05:24:15.685Z,1021.25
2018-01-08T05:26:09.066Z,1021.35
2018-01-08T05:27:08.863Z,1021.22
2018-01-08T05:29:02.104Z,1021.19
2018-01-08T05:30:02.031Z,1021.20
2018-01-08T05:31:55.298Z,1021.18
2018-01-08T05:32:55.205Z,1021.18
2018-01-08T05:34:48.448Z,1021.23
2018-01-08T05:35:48.378Z,1021.23
2018-01-08T05:37:41.644Z,1021.22
2018-01-08T05:38:41.553Z,1021.19
2018-01-08T05:40:34.823Z,1021.24
2018-01-08T05:41:34.723Z,1021.23
2018-01-08T05:43:27.975Z,1021.23
2018-01-08T05:44:27.898Z,1021.18
2018-01-08T05:46:21.165Z,1021.19
2018-01-08T05:47:21.072Z,1021.20
2018-01-08T05:49:14.432Z,1021.16
2018-01-08T05:50:14.301Z,1021.15
2018-01-08T05:52:07.569Z,1021.19
2018-01-08T05:53:07.486Z,1021.11
2018-01-08T05:55:00.723Z,1021.12
2018-01-08T05:56:00.644Z,1021.13
2018-01-08T05:57:53.918Z,1021.10
2018-01-08T05:58:53.820Z,1021.09
2018-01-08T06:00:47.207Z,1021.12
2018-01-08T06:01:46.995Z,1021.11
2018-01-08T06:03:40.242Z,1021.12
2018-01-08T06:04:40.170Z,1021.15
2018-01-08T06:06:33.550Z,1021.17
2018-01-08T06:07:33.344Z,1021.22
2018-01-08T06:09:26.581Z,1021.22
2018-01-08T06:10:26.504Z,1021.23
2018-01-08T06:12:19.771Z,1021.23
2018-01-08T06:13:19.677Z,1021.24
2018-01-08T06:15:12.925Z,1021.28
2018-01-08T06:16:12.849Z,1021.23
2018-01-08T06:18:06.119Z,1021.25
2018-01-08T06:19:06.026Z,1021.21
2018-01-08T06:20:59.294Z,1021.24
2018-01-08T06:21:59.198Z,1021.21
2018-01-08T06:23:52.461Z,1021.23
2018-01-08T06:24:52.373Z,1021.25
2018-01-08T06:26:45.754Z,1021.25
2018-01-08T06:27:45.559Z,1021.25
2018-01-08T06:29:38.918Z,1021.27
2018-01-08T06:30:38.728Z,1021.26
2018-01-08T06:32:31.988Z,1021.28
2018-01-08T06:33:31.895Z,1021.28
2018-01-08T06:35:26.143Z,1021.39
2018-01-08T06:36:26.066Z,1021.32
2018-01-08T06:38:19.448Z,1021.36
2018-01-08T06:39:19.299Z,1021.31
2018-01-08T06:41:12.677Z,1021.34
2018-01-08T06:42:12.470Z,1021.33
2018-01-08T06:44:05.721Z,1021.17
2018-01-08T06:45:05.643Z,1021.26
2018-01-08T06:46:58.914Z,1021.32
2018-01-08T06:47:58.819Z,1021.27
2018-01-08T06:49:53.110Z,1021.20
2018-01-08T06:50:52.990Z,1021.27
2018-01-08T06:52:46.264Z,1021.26
2018-01-08T06:53:46.162Z,1021.27
2018-01-08T06:55:40.411Z,1021.24
2018-01-08T06:56:40.333Z,1021.29
2018-01-08T06:58:33.713Z,1021.31
2018-01-08T06:59:33.504Z,1021.28
2018-01-08T07:01:26.770Z,1021.30
2018-01-08T07:02:26.677Z,1021.36
2018-01-08T07:04:20.035Z,1021.34
2018-01-08T07:05:19.850Z,1021.29
2018-01-08T07:07:13.229Z,1021.28
2018-01-08T07:08:13.020Z,1021.31
2018-01-08T07:10:06.277Z,1021.19
2018-01-08T07:11:06.185Z,1021.26
2018-01-08T07:12:59.460Z,1021.25
2018-01-08T07:13:59.358Z,1021.22
2018-01-08T07:15:52.607Z,1021.24
2018-01-08T07:16:52.531Z,1021.22
2018-01-08T07:18:45.798Z,1021.16
2018-01-08T07:19:45.701Z,1021.25
2018-01-08T07:21:38.966Z,1021.18
2018-01-08T07:22:38.874Z,1021.18
2018-01-08T07:24:32.234Z,1021.16
2018-01-08T07:25:32.048Z,1021.18
2018-01-08T07:27:25.426Z,1021.18
2018-01-08T07:28:25.298Z,1021.13
2018-01-08T07:30:18.567Z,1021.13
2018-01-08T07:31:18.473Z,1021.17
2018-01-08T07:33:11.738Z,1021.15
2018-01-08T07:34:11.643Z,1021.14
2018-01-08T07:36:05.003Z,1021.12
2018-01-08T07:37:04.815Z,1021.19
2018-01-08T07:38:58.193Z,1021.13
2018-01-08T07:39:57.987Z,1021.10
2018-01-08T07:41:51.250Z,1021.10
2018-01-08T07:42:51.157Z,1021.12
2018-01-08T07:44:44.405Z,1021.12
2018-01-08T07:45:44.331Z,1021.15
2018-01-08T07:47:37.596Z,1021.14
2018-01-08T07:48:37.501Z,1021.10
2018-01-08T07:50:30.751Z,1021.11
2018-01-08T07:51:30.671Z,1021.11
2018-01-08T07:53:24.052Z,1021.03
2018-01-08T07:54:23.854Z,1021.06
2018-01-08T07:56:17.099Z,1021.08
2018-01-08T07:57:17.024Z,1020.99
2018-01-08T07:59:10.405Z,1021.03
2018-01-08T08:00:10.194Z,1021.05
2018-01-08T08:02:03.514Z,1020.95
2018-01-08T08:03:03.364Z,1020.96
2018-01-08T08:04:56.724Z,1020.92
2018-01-08T08:05:56.543Z,1020.91
2018-01-08T08:07:49.917Z,1020.92
2018-01-08T08:08:49.710Z,1020.90
2018-01-08T08:10:42.955Z,1020.87
2018-01-08T08:11:42.886Z,1020.89
2018-01-08T08:13:36.261Z,1020.86
2018-01-08T08:14:36.056Z,1020.81
2018-01-08T08:16:29.375Z,1020.70
2018-01-08T08:17:29.298Z,1020.73
2018-01-08T08:19:22.562Z,1020.78
2018-01-08T08:20:22.474Z,1020.77
2018-01-08T08:22:15.739Z,1020.80
2018-01-08T08:23:15.642Z,1020.73
2018-01-08T08:25:09.003Z,1020.78
2018-01-08T08:26:08.853Z,1020.75
2018-01-08T08:28:02.080Z,1020.66
2018-01-08T08:29:01.987Z,1020.75
2018-01-08T08:30:55.344Z,1020.78
2018-01-08T08:31:55.164Z,1020.77
2018-01-08T08:33:48.425Z,1020.80
2018-01-08T08:34:48.333Z,1020.86
2018-01-08T08:36:41.582Z,1020.77
2018-01-08T08:37:41.499Z,1020.76
2018-01-08T08:39:34.883Z,1020.79
2018-01-08T08:40:34.676Z,1020.82
2018-01-08T08:42:28.048Z,1020.79
2018-01-08T08:43:27.846Z,1020.85
2018-01-08T08:45:21.107Z,1020.89
2018-01-08T08:46:21.033Z,1020.86
2018-01-08T08:48:14.309Z,1020.86
2018-01-08T08:49:14.214Z,1020.81
2018-01-08T08:51:07.576Z,1020.79
2018-01-08T08:52:07.388Z,1020.77
2018-01-08T08:54:00.656Z,1020.70
2018-01-08T08:55:00.561Z,1020.75
2018-01-08T08:56:53.815Z,1020.78
2018-01-08T08:57:53.742Z,1020.74
2018-01-08T08:59:47.120Z,1020.68
2018-01-08T09:00:46.904Z,1020.70
2018-01-08T09:02:40.288Z,1020.70
2018-01-08T09:03:40.090Z,1020.65
2018-01-08T09:05:33.341Z,1020.72
2018-01-08T09:06:33.264Z,1020.71
2018-01-08T09:08:26.645Z,1020.66
2018-01-08T09:09:26.439Z,1020.79
2018-01-08T09:11:19.686Z,1020.77
2018-01-08T09:12:19.613Z,1020.71
2018-01-08T09:14:12.992Z,1020.73
2018-01-08T09:15:12.785Z,1020.76
2018-01-08T09:17:06.154Z,1020.71
2018-01-08T09:18:05.961Z,1020.71
2018-01-08T09:19:59.224Z,1020.68
2018-01-08T09:20:59.132Z,1020.71
2018-01-08T09:22:52.398Z,1020.62
2018-01-08T09:23:52.307Z,1020.65
2018-01-08T09:25:45.669Z,1020.69
2018-01-08T09:26:45.481Z,1020.66
2018-01-08T09:28:38.749Z,1020.61
2018-01-08T09:29:38.656Z,1020.56
2018-01-08T09:31:32.019Z,1020.59
2018-01-08T09:32:31.832Z,1020.54
2018-01-08T09:34:25.102Z,1020.50
2018-01-08T09:35:25.008Z,1020.54
2018-01-08T09:37:18.368Z,1020.50
2018-01-08T09:38:18.188Z,1020.54
2018-01-08T09:40:11.456Z,1020.51
2018-01-08T09:41:11.364Z,1020.55
2018-01-08T09:43:04.650Z,1020.57
2018-01-08T09:44:04.538Z,1020.58
2018-01-08T09:45:57.791Z,1020.59
2018-01-08T09:46:57.717Z,1020.57
2018-01-08T09:48:51.107Z,1020.59
2018-01-08T09:49:50.897Z,1020.63
2018-01-08T09:51:44.259Z,1020.62
2018-01-08T09:52:44.073Z,1020.56
2018-01-08T09:54:37.396Z,1020.49
2018-01-08T09:55:37.303Z,1020.53
2018-01-08T09:57:30.595Z,1020.42
2018-01-08T09:58:30.520Z,1020.42
2018-01-08T10:00:23.902Z,1020.42
2018-01-08T10:01:23.690Z,1020.37
2018-01-08T10:03:17.071Z,1020.37
2018-01-08T10:04:16.872Z,1020.30
2018-01-08T10:06:10.234Z,1020.29
2018-01-08T10:07:10.056Z,1020.32
2018-01-08T10:09:03.407Z,1020.27
2018-01-08T10:10:03.303Z,1020.32
2018-01-08T10:11:56.667Z,1020.29
2018-01-08T10:12:56.485Z,1020.28
2018-01-08T10:14:49.755Z,1020.31
2018-01-08T10:15:49.662Z,1020.40
2018-01-08T10:17:42.916Z,1020.32
2018-01-08T10:18:42.841Z,1020.33
2018-01-08T10:20:36.113Z,1020.30
2018-01-08T10:21:36.024Z,1020.30
2018-01-08T10:23:29.403Z,1020.26
2018-01-08T10:24:29.309Z,1020.20
2018-01-08T10:26:22.668Z,1020.20
2018-01-08T10:27:22.487Z,1020.21
2018-01-08T10:29:15.755Z,1020.15
2018-01-08T10:30:15.667Z,1020.15
2018-01-08T10:32:08.956Z,1020.11
2018-01-08T10:33:08.849Z,1020.13
2018-01-08T10:35:03.228Z,1020.10
2018-01-08T10:36:03.025Z,1020.13
2018-01-08T10:37:56.296Z,1020.03
2018-01-08T10:38:56.201Z,1020.02
2018-01-08T10:40:50.479Z,1019.97
2018-01-08T10:41:50.386Z,1019.98
2018-01-08T10:43:43.767Z,1019.98
2018-01-08T10:44:43.565Z,1019.97
2018-01-08T10:46:36.817Z,1019.94
2018-01-08T10:47:36.742Z,1019.94
2018-01-08T10:49:30.017Z,1019.86
2018-01-08T10:50:29.924Z,1019.93
2018-01-08T10:52:23.180Z,1019.90
2018-01-08T10:53:23.107Z,1019.92
2018-01-08T10:55:16.383Z,1019.86
2018-01-08T10:56:16.286Z,1019.87
2018-01-08T10:58:09.544Z,1019.89
2018-01-08T10:59:09.469Z,1019.85
2018-01-08T11:01:02.756Z,1019.87
2018-01-08T11:02:02.661Z,1019.84
2018-01-08T11:03:55.923Z,1019.73
2018-01-08T11:04:55.832Z,1019.72
2018-01-08T11:06:49.084Z,1019.70
2018-01-08T11:07:49.015Z,1019.67
2018-01-08T11:09:42.398Z,1019.65
2018-01-08T11:10:42.184Z,1019.67
2018-01-08T11:12:35.547Z,1019.69
2018-01-08T11:13:35.363Z,1019.56
2018-01-08T11:15:28.744Z,1019.56
2018-01-08T11:16:28.540Z,1019.56
2018-01-08T11:18:21.801Z,1019.59
2018-01-08T11:19:21.723Z,1019.48
2018-01-08T11:21:14.998Z,1019.53
2018-01-08T11:22:14.900Z,1019.57
2018-01-08T11:24:08.179Z,1019.47
2018-01-08T11:25:08.089Z,1019.48
2018-01-08T11:27:01.452Z,1019.49
2018-01-08T11:28:01.307Z,1019.48
2018-01-08T11:29:54.567Z,1019.45
2018-01-08T11:30:54.476Z,1019.42
2018-01-08T11:32:47.718Z,1019.40
2018-01-08T11:33:47.643Z,1019.43
2018-01-08T11:35:41.027Z,1019.40
2018-01-08T11:36:40.853Z,1019.30
2018-01-08T11:38:34.189Z,1019.34
2018-01-08T11:39:34.005Z,1019.33
2018-01-08T11:41:27.274Z,1019.30
2018-01-08T11:42:27.189Z,1019.20
2018-01-08T11:44:20.460Z,1019.16
2018-01-08T11:45:20.367Z,1019.19
2018-01-08T11:47:13.645Z,1019.08
2018-01-08T11:48:13.552Z,1019.07
2018-01-08T11:50:06.931Z,1019.04
2018-01-08T11:51:06.730Z,1018.96
2018-01-08T11:53:00.101Z,1019.01
2018-01-08T11:53:59.909Z,1019.01
2018-01-08T11:55:53.287Z,1018.99
2018-01-08T11:56:53.090Z,1018.93
2018-01-08T11:58:46.350Z,1018.95
2018-01-08T11:59:46.271Z,1018.89
2018-01-08T12:01:39.654Z,1018.88
2018-01-08T12:02:39.451Z,1018.82
2018-01-08T12:04:32.756Z,1018.84
2018-01-08T12:05:32.625Z,1018.83
2018-01-08T12:07:26.010Z,1018.76
2018-01-08T12:08:25.810Z,1018.77
2018-01-08T12:10:19.071Z,1018.77
2018-01-08T12:11:18.983Z,1018.77
2018-01-08T12:13:12.346Z,1018.76
2018-01-08T12:14:12.152Z,1018.69
2018-01-08T12:16:05.533Z,1018.68
2018-01-08T12:17:05.331Z,1018.67
2018-01-08T12:18:58.584Z,1018.68
2018-01-08T12:19:58.512Z,1018.67
2018-01-08T12:21:51.795Z,1018.68
2018-01-08T12:22:51.698Z,1018.64
2018-01-08T12:24:44.961Z,1018.68
2018-01-08T12:25:44.871Z,1018.55
2018-01-08T12:27:38.237Z,1018.62
2018-01-08T12:28:38.052Z,1018.67
2018-01-08T12:30:31.409Z,1018.63
2018-01-08T12:31:31.307Z,1018.64
2018-01-08T12:33:24.672Z,1018.59
2018-01-08T12:34:24.489Z,1018.60
2018-01-08T12:36:17.760Z,1018.63
2018-01-08T12:37:17.672Z,1018.63
2018-01-08T12:39:11.034Z,1018.57
2018-01-08T12:40:10.853Z,1018.54
2018-01-08T12:42:04.150Z,1018.59
2018-01-08T12:43:04.033Z,1018.60
2018-01-08T12:44:57.396Z,1018.52
2018-01-08T12:45:57.309Z,1018.51
2018-01-08T12:47:50.560Z,1018.48
2018-01-08T12:48:50.486Z,1018.43
2018-01-08T12:50:43.781Z,1018.44
2018-01-08T12:51:43.694Z,1018.36
2018-01-08T12:53:37.054Z,1018.33
2018-01-08T12:54:36.876Z,1018.30
2018-01-08T12:56:30.257Z,1018.28
2018-01-08T12:57:30.056Z,1018.27
2018-01-08T12:59:23.420Z,1018.32
2018-01-08T13:00:23.227Z,1018.15
2018-01-08T13:02:16.612Z,1018.21
2018-01-08T13:03:16.396Z,1018.11
2018-01-08T13:05:09.648Z,1018.17
2018-01-08T13:06:09.577Z,1018.18
2018-01-08T13:08:02.355Z,1018.15
2018-01-08T13:09:02.260Z,1018.12
2018-01-08T13:10:55.622Z,1018.04
2018-01-08T13:11:55.441Z,1017.99
2018-01-08T13:13:48.717Z,1018.01
2018-01-08T13:14:48.622Z,1018.00
2018-01-08T13:16:41.908Z,1018.05
2018-01-08T13:17:41.836Z,1018.00
2018-01-08T13:19:35.097Z,1018.12
2018-01-08T13:20:35.039Z,1018.03
2018-01-08T13:22:28.259Z,1018.11
2018-01-08T13:23:28.188Z,1018.05
2018-01-08T13:25:21.569Z,1018.07
2018-01-08T13:26:21.359Z,1018.07
2018-01-08T13:28:14.625Z,1017.99
2018-01-08T13:29:14.552Z,1017.96
2018-01-08T13:31:07.825Z,1017.96
2018-01-08T13:32:07.734Z,1017.94
2018-01-08T13:34:00.998Z,1017.97
2018-01-08T13:35:00.926Z,1017.98
2018-01-08T13:36:54.216Z,1017.96
2018-01-08T13:37:54.118Z,1017.95
2018-01-08T13:39:47.512Z,1017.98
2018-01-08T13:40:47.371Z,1017.90
2018-01-08T13:42:40.562Z,1017.97
2018-01-08T13:43:40.488Z,1017.92
2018-01-08T13:45:33.869Z,1017.98
2018-01-08T13:46:33.669Z,1017.94
2018-01-08T13:48:26.921Z,1018.04
2018-01-08T13:49:26.850Z,1017.93
2018-01-08T13:51:20.142Z,1017.92
2018-01-08T13:52:20.033Z,1017.90
2018-01-08T13:54:13.379Z,1017.94
2018-01-08T13:55:13.307Z,1017.92
2018-01-08T13:57:06.574Z,1017.92
2018-01-08T13:58:06.486Z,1017.87
2018-01-08T13:59:59.857Z,1017.90
2018-01-08T14:00:59.655Z,1017.92
2018-01-08T14:02:53.043Z,1017.85
2018-01-08T14:03:52.837Z,1017.89
2018-01-08T14:05:46.224Z,1017.89
2018-01-08T14:06:46.019Z,1017.90
2018-01-08T14:08:39.273Z,1017.78
2018-01-08T14:09:39.203Z,1017.87
2018-01-08T14:11:32.462Z,1017.84
2018-01-08T14:12:32.373Z,1017.83
2018-01-08T14:14:25.619Z,1017.91
2018-01-08T14:15:25.538Z,1017.86
2018-01-08T14:17:18.923Z,1017.83
2018-01-08T14:18:18.710Z,1017.82
2018-01-08T14:20:11.997Z,1017.79
2018-01-08T14:21:11.924Z,1017.77
2018-01-08T14:23:05.313Z,1017.78
2018-01-08T14:24:05.104Z,1017.76
2018-01-08T14:25:58.483Z,1017.67
2018-01-08T14:26:58.285Z,1017.73
2018-01-08T14:28:51.536Z,1017.67
2018-01-08T14:29:51.464Z,1017.61
2018-01-08T14:31:45.858Z,1017.66
2018-01-08T14:32:45.639Z,1017.63
2018-01-08T14:34:39.001Z,1017.66
2018-01-08T14:35:38.817Z,1017.69
2018-01-08T14:37:32.200Z,1017.65
2018-01-08T14:38:32.044Z,1017.66
2018-01-08T14:40:25.239Z,1017.69
2018-01-08T14:41:25.168Z,1017.64
2018-01-08T14:43:18.552Z,1017.64
2018-01-08T14:44:18.336Z,1017.61
2018-01-08T14:46:11.716Z,1017.61
2018-01-08T14:47:11.516Z,1017.59
2018-01-08T14:49:04.878Z,1017.61
2018-01-08T14:50:04.702Z,1017.54
2018-01-08T14:51:58.087Z,1017.68
2018-01-08T14:52:57.881Z,1017.65
2018-01-08T14:54:51.268Z,1017.63
2018-01-08T14:55:51.064Z,1017.66
2018-01-08T14:57:45.380Z,1017.68
2018-01-08T14:58:45.305Z,1017.71
2018-01-08T15:00:38.577Z,1017.70
2018-01-08T15:01:38.485Z,1017.67
2018-01-08T15:03:31.873Z,1017.74
2018-01-08T15:04:31.662Z,1017.69
2018-01-08T15:06:25.048Z,1017.69
2018-01-08T15:07:24.833Z,1017.67
2018-01-08T15:09:18.084Z,1017.77
2018-01-08T15:10:18.026Z,1017.72
2018-01-08T15:12:11.283Z,1017.71
2018-01-08T15:13:11.192Z,1017.71
2018-01-08T15:15:04.559Z,1017.61
2018-01-08T15:16:04.371Z,1017.67
2018-01-08T15:17:57.652Z,1017.64
2018-01-08T15:18:57.554Z,1017.58
2018-01-08T15:20:50.916Z,1017.58
2018-01-08T15:21:50.733Z,1017.56
2018-01-08T15:23:44.003Z,1017.51
2018-01-08T15:24:43.911Z,1017.52
2018-01-08T15:26:37.178Z,1017.50
2018-01-08T15:27:37.089Z,1017.51
2018-01-08T15:29:30.453Z,1017.45
2018-01-08T15:30:30.269Z,1017.50
2018-01-08T15:32:23.541Z,1017.49
2018-01-08T15:33:23.450Z,1017.47
2018-01-08T15:35:16.698Z,1017.45
2018-01-08T15:36:16.629Z,1017.49
2018-01-08T15:38:09.899Z,1017.49
2018-01-08T15:39:09.808Z,1017.54
2018-01-08T15:41:03.060Z,1017.52
2018-01-08T15:42:02.992Z,1017.52
2018-01-08T15:43:56.258Z,1017.54
2018-01-08T15:44:56.165Z,1017.52
2018-01-08T15:46:49.435Z,1017.50
2018-01-08T15:47:49.344Z,1017.50
2018-01-08T15:49:42.596Z,1017.50
2018-01-08T15:50:42.524Z,1017.45
2018-01-08T15:52:35.794Z,1017.49
2018-01-08T15:53:35.706Z,1017.55
2018-01-08T15:55:28.949Z,1017.59
2018-01-08T15:56:28.874Z,1017.62
2018-01-08T15:58:23.136Z,1017.64
2018-01-08T15:59:23.043Z,1017.63
2018-01-08T16:01:16.321Z,1017.58
2018-01-08T16:02:16.233Z,1017.60
2018-01-08T16:04:09.498Z,1017.48
2018-01-08T16:05:09.408Z,1017.43
2018-01-08T16:07:02.663Z,1017.42
2018-01-08T16:08:02.583Z,1017.44
2018-01-08T16:09:55.814Z,1017.40
2018-01-08T16:10:55.740Z,1017.44
2018-01-08T16:12:49.009Z,1017.38
2018-01-08T16:13:48.975Z,1017.39
2018-01-08T16:15:42.167Z,1017.29
2018-01-08T16:16:42.095Z,1017.30
2018-01-08T16:18:35.394Z,1017.30
2018-01-08T16:19:35.302Z,1017.33
2018-01-08T16:21:28.665Z,1017.22
2018-01-08T16:22:28.486Z,1017.18
2018-01-08T16:24:21.751Z,1017.12
2018-01-08T16:25:21.657Z,1017.14
2018-01-08T16:27:14.926Z,1017.12
2018-01-08T16:28:14.836Z,1017.06
2018-01-08T16:30:08.081Z,1017.13
2018-01-08T16:31:08.007Z,1017.11
2018-01-08T16:33:01.273Z,1017.09
2018-01-08T16:34:01.186Z,1017.12
2018-01-08T16:35:55.423Z,1017.02
2018-01-08T16:36:55.348Z,1017.06
2018-01-08T16:38:48.732Z,1017.06
2018-01-08T16:39:48.529Z,1017.00
2018-01-08T16:41:41.782Z,1017.08
2018-01-08T16:42:41.707Z,1017.06
2018-01-08T16:44:34.978Z,1017.05
2018-01-08T16:45:34.883Z,1016.99
2018-01-08T16:47:28.151Z,1016.98
2018-01-08T16:48:28.059Z,1016.98
2018-01-08T16:50:21.422Z,1016.96
2018-01-08T16:51:21.304Z,1016.97
2018-01-08T16:53:14.578Z,1016.96
2018-01-08T16:54:14.483Z,1017.03
2018-01-08T16:56:07.730Z,1016.96
2018-01-08T16:57:07.659Z,1016.98
2018-01-08T16:59:00.925Z,1016.96
2018-01-08T17:00:00.830Z,1016.91
2018-01-08T17:01:54.082Z,1016.85
2018-01-08T17:02:54.010Z,1016.90
2018-01-08T17:04:47.281Z,1016.98
2018-01-08T17:05:47.189Z,1016.91
2018-01-08T17:07:40.458Z,1016.83
2018-01-08T17:08:40.365Z,1016.87
2018-01-08T17:10:34.728Z,1016.86
2018-01-08T17:11:34.541Z,1016.92
2018-01-08T17:13:27.809Z,1016.89
2018-01-08T17:14:27.744Z,1016.86
2018-01-08T17:16:20.964Z,1016.90
2018-01-08T17:17:20.893Z,1016.90
2018-01-08T17:19:14.273Z,1016.86
2018-01-08T17:20:14.067Z,1016.90
2018-01-08T17:22:07.400Z,1016.81
2018-01-08T17:23:07.323Z,1016.80
2018-01-08T17:25:00.720Z,1016.85
2018-01-08T17:26:00.502Z,1016.83
2018-01-08T17:27:53.768Z,1016.81